sensor_id;sensor_type;location;lat;lon;timestamp;pressure;altitude;pressure_sealevel;temperature;humidity
11329;BME280;5719;42.714;23.732;2022-12-19T00:01:44;96088.75;;;2.13;93.00
11329;BME280;5719;42.714;23.732;2022-12-19T00:04:11;96090.56;;;2.08;92.57
11329;BME280;5719;42.714;23.732;2022-12-19T00:06:59;96099.09;;;2.04;91.92
11329;BME280;5719;42.714;23.732;2022-12-19T00:09:26;96100.81;;;2.02;91.99
11329;BME280;5719;42.714;23.732;2022-12-19T00:11:53;96111.06;;;1.98;91.39
11329;BME280;5719;42.714;23.732;2022-12-19T00:14:20;96110.25;;;1.95;92.64
11329;BME280;5719;42.714;23.732;2022-12-19T00:16:48;96105.22;;;1.90;92.91
11329;BME280;5719;42.714;23.732;2022-12-19T00:19:15;96103.50;;;1.89;92.65
11329;BME280;5719;42.714;23.732;2022-12-19T00:21:42;96106.09;;;1.86;92.37
11329;BME280;5719;42.714;23.732;2022-12-19T00:24:09;96098.53;;;1.82;91.98
11329;BME280;5719;42.714;23.732;2022-12-19T00:26:36;96099.44;;;1.78;92.98
11329;BME280;5719;42.714;23.732;2022-12-19T00:29:06;96105.50;;;1.65;93.16
11329;BME280;5719;42.714;23.732;2022-12-19T00:31:34;96121.00;;;1.48;94.69
11329;BME280;5719;42.714;23.732;2022-12-19T00:34:03;96121.88;;;1.44;95.45
11329;BME280;5719;42.714;23.732;2022-12-19T00:36:32;96132.94;;;1.44;95.57
11329;BME280;5719;42.714;23.732;2022-12-19T00:39:00;96127.00;;;1.44;95.21
11329;BME280;5719;42.714;23.732;2022-12-19T00:41:28;96116.81;;;1.42;96.02
11329;BME280;5719;42.714;23.732;2022-12-19T00:43:56;96114.25;;;1.44;95.21
11329;BME280;5719;42.714;23.732;2022-12-19T00:46:24;96117.66;;;1.43;94.43
11329;BME280;5719;42.714;23.732;2022-12-19T00:48:51;96120.16;;;1.46;93.78
11329;BME280;5719;42.714;23.732;2022-12-19T00:51:21;96121.03;;;1.43;94.32
11329;BME280;5719;42.714;23.732;2022-12-19T00:53:49;96127.81;;;1.46;95.15
11329;BME280;5719;42.714;23.732;2022-12-19T00:56:18;96126.94;;;1.47;94.74
11329;BME280;5719;42.714;23.732;2022-12-19T00:58:45;96128.69;;;1.45;94.57
11329;BME280;5719;42.714;23.732;2022-12-19T01:01:14;96135.44;;;1.46;93.63
11329;BME280;5719;42.714;23.732;2022-12-19T01:03:41;96130.34;;;1.46;94.16
11329;BME280;5719;42.714;23.732;2022-12-19T01:06:08;96131.22;;;1.45;92.50
11329;BME280;5719;42.714;23.732;2022-12-19T01:08:36;96137.19;;;1.44;93.20
11329;BME280;5719;42.714;23.732;2022-12-19T01:11:04;96138.03;;;1.43;92.37
11329;BME280;5719;42.714;23.732;2022-12-19T01:13:32;96137.25;;;1.38;93.36
11329;BME280;5719;42.714;23.732;2022-12-19T01:16:01;96147.44;;;1.38;92.64
11329;BME280;5719;42.714;23.732;2022-12-19T01:18:28;96137.25;;;1.35;93.45
11329;BME280;5719;42.714;23.732;2022-12-19T01:20:58;96149.19;;;1.33;93.01
11329;BME280;5719;42.714;23.732;2022-12-19T01:23:26;96142.38;;;1.32;93.62
11329;BME280;5719;42.714;23.732;2022-12-19T01:25:55;96141.53;;;1.31;93.68
11329;BME280;5719;42.714;23.732;2022-12-19T01:28:22;96146.63;;;1.33;94.04
11329;BME280;5719;42.714;23.732;2022-12-19T01:30:50;96144.09;;;1.31;93.42
11329;BME280;5719;42.714;23.732;2022-12-19T01:33:18;96133.97;;;1.27;93.52
11329;BME280;5719;42.714;23.732;2022-12-19T01:35:47;96130.59;;;1.22;92.88
11329;BME280;5719;42.714;23.732;2022-12-19T01:38:14;96126.53;;;1.03;94.55
11329;BME280;5719;42.714;23.732;2022-12-19T01:40:48;96130.78;;;1.05;93.81
11329;BME280;5719;42.714;23.732;2022-12-19T01:43:16;96143.56;;;0.97;94.57
11329;BME280;5719;42.714;23.732;2022-12-19T01:45:44;96141.06;;;0.90;95.68
11329;BME280;5719;42.714;23.732;2022-12-19T01:48:14;96134.31;;;0.87;96.38
11329;BME280;5719;42.714;23.732;2022-12-19T01:50:50;96136.84;;;0.89;95.79
11329;BME280;5719;42.714;23.732;2022-12-19T01:53:19;96134.28;;;0.90;95.72
11329;BME280;5719;42.714;23.732;2022-12-19T01:55:47;96132.59;;;0.89;96.10
11329;BME280;5719;42.714;23.732;2022-12-19T01:58:16;96127.50;;;0.88;95.99
11329;BME280;5719;42.714;23.732;2022-12-19T02:00:43;96122.44;;;0.85;96.47
11329;BME280;5719;42.714;23.732;2022-12-19T02:03:13;96124.13;;;0.87;96.32
11329;BME280;5719;42.714;23.732;2022-12-19T02:05:41;96127.50;;;0.89;97.20
11329;BME280;5719;42.714;23.732;2022-12-19T02:08:09;96123.22;;;0.94;96.83
11329;BME280;5719;42.714;23.732;2022-12-19T02:10:36;96110.50;;;0.94;97.54
11329;BME280;5719;42.714;23.732;2022-12-19T02:13:03;96115.56;;;0.97;96.89
11329;BME280;5719;42.714;23.732;2022-12-19T02:15:40;96121.47;;;1.01;97.41
11329;BME280;5719;42.714;23.732;2022-12-19T02:18:13;96115.50;;;1.05;97.77
11329;BME280;5719;42.714;23.732;2022-12-19T02:20:57;96121.41;;;1.07;97.29
11329;BME280;5719;42.714;23.732;2022-12-19T02:26:47;96119.66;;;1.11;96.61
11329;BME280;5719;42.714;23.732;2022-12-19T02:29:33;96131.59;;;1.09;97.73
11329;BME280;5719;42.714;23.732;2022-12-19T02:32:09;96130.75;;;1.07;97.53
11329;BME280;5719;42.714;23.732;2022-12-19T02:34:43;96131.09;;;0.64;100.00
11329;BME280;5719;42.714;23.732;2022-12-19T02:37:17;96131.91;;;0.66;100.00
11329;BME280;5719;42.714;23.732;2022-12-19T02:39:49;96119.97;;;0.76;100.00
11329;BME280;5719;42.714;23.732;2022-12-19T02:42:23;96119.06;;;0.81;100.00
11329;BME280;5719;42.714;23.732;2022-12-19T02:44:52;96127.69;;;0.65;100.00
11329;BME280;5719;42.714;23.732;2022-12-19T02:47:21;96130.50;;;0.24;100.00
11329;BME280;5719;42.714;23.732;2022-12-19T02:49:48;96128.81;;;0.25;100.00
11329;BME280;5719;42.714;23.732;2022-12-19T02:52:43;96124.72;;;-0.07;100.00
11329;BME280;5719;42.714;23.732;2022-12-19T02:55:13;96130.53;;;0.15;100.00
11329;BME280;5719;42.714;23.732;2022-12-19T02:57:52;96139.78;;;0.36;100.00
11329;BME280;5719;42.714;23.732;2022-12-19T03:00:22;96133.75;;;0.46;100.00
11329;BME280;5719;42.714;23.732;2022-12-19T03:02:54;96132.25;;;0.15;100.00
11329;BME280;5719;42.714;23.732;2022-12-19T03:05:27;96138.91;;;0.35;100.00
11329;BME280;5719;42.714;23.732;2022-12-19T03:08:03;96133.69;;;0.58;100.00
11329;BME280;5719;42.714;23.732;2022-12-19T03:10:36;96124.25;;;0.72;100.00
11329;BME280;5719;42.714;23.732;2022-12-19T03:13:05;96128.41;;;0.82;100.00
11329;BME280;5719;42.714;23.732;2022-12-19T03:15:33;96115.69;;;0.82;100.00
11329;BME280;5719;42.714;23.732;2022-12-19T03:18:03;96123.22;;;0.93;100.00
11329;BME280;5719;42.714;23.732;2022-12-19T03:20:38;96114.72;;;0.97;100.00
11329;BME280;5719;42.714;23.732;2022-12-19T03:23:09;96106.22;;;0.95;100.00
11329;BME280;5719;42.714;23.732;2022-12-19T03:25:37;96108.69;;;1.06;100.00
11329;BME280;5719;42.714;23.732;2022-12-19T03:28:12;96104.38;;;1.12;100.00
11329;BME280;5719;42.714;23.732;2022-12-19T03:30:42;96102.66;;;1.14;100.00
11329;BME280;5719;42.714;23.732;2022-12-19T03:33:13;96110.25;;;1.19;100.00
11329;BME280;5719;42.714;23.732;2022-12-19T03:35:42;96121.31;;;1.19;100.00
11329;BME280;5719;42.714;23.732;2022-12-19T03:38:12;96125.50;;;1.22;100.00
11329;BME280;5719;42.714;23.732;2022-12-19T03:40:41;96122.13;;;1.23;100.00
11329;BME280;5719;42.714;23.732;2022-12-19T03:43:11;96122.03;;;1.29;100.00
11329;BME280;5719;42.714;23.732;2022-12-19T03:45:49;96126.25;;;1.31;100.00
11329;BME280;5719;42.714;23.732;2022-12-19T03:48:24;96130.47;;;1.37;100.00
11329;BME280;5719;42.714;23.732;2022-12-19T03:51:01;96135.53;;;1.40;100.00
11329;BME280;5719;42.714;23.732;2022-12-19T03:53:39;96137.22;;;1.41;100.00
11329;BME280;5719;42.714;23.732;2022-12-19T03:56:11;96141.44;;;1.43;100.00
11329;BME280;5719;42.714;23.732;2022-12-19T03:58:48;96145.63;;;1.46;100.00
11329;BME280;5719;42.714;23.732;2022-12-19T04:01:17;96144.78;;;1.47;100.00
11329;BME280;5719;42.714;23.732;2022-12-19T04:03:47;96143.94;;;1.48;100.00
11329;BME280;5719;42.714;23.732;2022-12-19T04:06:16;96150.69;;;1.51;100.00
11329;BME280;5719;42.714;23.732;2022-12-19T04:08:43;96153.25;;;1.52;100.00
11329;BME280;5719;42.714;23.732;2022-12-19T04:11:15;96154.91;;;1.56;100.00
11329;BME280;5719;42.714;23.732;2022-12-19T04:13:48;96162.53;;;1.56;100.00
11329;BME280;5719;42.714;23.732;2022-12-19T04:16:19;96161.66;;;1.57;100.00
11329;BME280;5719;42.714;23.732;2022-12-19T04:18:53;96150.66;;;1.55;100.00
11329;BME280;5719;42.714;23.732;2022-12-19T04:21:27;96160.78;;;1.61;100.00
11329;BME280;5719;42.714;23.732;2022-12-19T04:23:58;96169.28;;;1.63;100.00
11329;BME280;5719;42.714;23.732;2022-12-19T04:26:27;96177.72;;;1.67;100.00
11329;BME280;5719;42.714;23.732;2022-12-19T04:28:57;96176.06;;;1.63;100.00
11329;BME280;5719;42.714;23.732;2022-12-19T04:31:26;96187.03;;;1.68;100.00
11329;BME280;5719;42.714;23.732;2022-12-19T04:33:54;96174.38;;;1.63;100.00
11329;BME280;5719;42.714;23.732;2022-12-19T04:36:21;96182.81;;;1.65;100.00
11329;BME280;5719;42.714;23.732;2022-12-19T04:38:48;96188.81;;;1.63;100.00
11329;BME280;5719;42.714;23.732;2022-12-19T04:41:15;96184.53;;;1.65;100.00
11329;BME280;5719;42.714;23.732;2022-12-19T04:43:42;96176.91;;;1.62;100.00
11329;BME280;5719;42.714;23.732;2022-12-19T04:46:09;96181.16;;;1.61;100.00
11329;BME280;5719;42.714;23.732;2022-12-19T04:48:36;96184.59;;;1.60;100.00
11329;BME280;5719;42.714;23.732;2022-12-19T04:51:05;96174.41;;;1.60;100.00
11329;BME280;5719;42.714;23.732;2022-12-19T04:53:32;96171.03;;;1.57;100.00
11329;BME280;5719;42.714;23.732;2022-12-19T04:55:59;96176.94;;;1.60;100.00
11329;BME280;5719;42.714;23.732;2022-12-19T04:58:27;96192.25;;;1.60;100.00
11329;BME280;5719;42.714;23.732;2022-12-19T05:00:54;96186.22;;;1.64;100.00
11329;BME280;5719;42.714;23.732;2022-12-19T05:03:21;96197.28;;;1.65;100.00
11329;BME280;5719;42.714;23.732;2022-12-19T05:05:48;96202.38;;;1.65;100.00
11329;BME280;5719;42.714;23.732;2022-12-19T05:08:16;96197.28;;;1.65;100.00
11329;BME280;5719;42.714;23.732;2022-12-19T05:10:43;96199.78;;;1.69;100.00
11329;BME280;5719;42.714;23.732;2022-12-19T05:13:10;96199.78;;;1.69;100.00
11329;BME280;5719;42.714;23.732;2022-12-19T05:15:36;96202.28;;;1.72;100.00
11329;BME280;5719;42.714;23.732;2022-12-19T05:18:03;96196.34;;;1.73;100.00
11329;BME280;5719;42.714;23.732;2022-12-19T05:20:30;96202.28;;;1.72;100.00
11329;BME280;5719;42.714;23.732;2022-12-19T05:22:57;96206.53;;;1.73;100.00
11329;BME280;5719;42.714;23.732;2022-12-19T05:25:25;96211.63;;;1.73;100.00
11329;BME280;5719;42.714;23.732;2022-12-19T05:27:52;96198.91;;;1.72;100.00
11329;BME280;5719;42.714;23.732;2022-12-19T05:30:19;96215.03;;;1.72;100.00
11329;BME280;5719;42.714;23.732;2022-12-19T05:32:48;96203.28;;;1.59;100.00
11329;BME280;5719;42.714;23.732;2022-12-19T05:35:15;96202.50;;;1.53;100.00
11329;BME280;5719;42.714;23.732;2022-12-19T05:37:42;96207.53;;;1.57;100.00
11329;BME280;5719;42.714;23.732;2022-12-19T05:40:10;96221.09;;;1.64;100.00
11329;BME280;5719;42.714;23.732;2022-12-19T05:42:38;96213.38;;;1.68;100.00
11329;BME280;5719;42.714;23.732;2022-12-19T05:45:06;96214.22;;;1.70;100.00
11329;BME280;5719;42.714;23.732;2022-12-19T05:47:33;96216.75;;;1.73;100.00
11329;BME280;5719;42.714;23.732;2022-12-19T05:50:00;96219.28;;;1.75;100.00
11329;BME280;5719;42.714;23.732;2022-12-19T05:52:27;96226.06;;;1.76;100.00
11329;BME280;5719;42.714;23.732;2022-12-19T05:54:54;96221.81;;;1.76;100.00
11329;BME280;5719;42.714;23.732;2022-12-19T05:57:21;96226.06;;;1.77;100.00
11329;BME280;5719;42.714;23.732;2022-12-19T05:59:49;96234.50;;;1.79;100.00
11329;BME280;5719;42.714;23.732;2022-12-19T06:02:16;96227.72;;;1.81;100.00
11329;BME280;5719;42.714;23.732;2022-12-19T06:04:43;96230.25;;;1.81;100.00
11329;BME280;5719;42.714;23.732;2022-12-19T06:07:10;96234.50;;;1.81;100.00
11329;BME280;5719;42.714;23.732;2022-12-19T06:09:37;96227.72;;;1.81;100.00
11329;BME280;5719;42.714;23.732;2022-12-19T06:12:04;96231.94;;;1.85;100.00
11329;BME280;5719;42.714;23.732;2022-12-19T06:14:31;96233.59;;;1.86;100.00
11329;BME280;5719;42.714;23.732;2022-12-19T06:16:59;96233.59;;;1.86;100.00
11329;BME280;5719;42.714;23.732;2022-12-19T06:19:27;96242.06;;;1.91;100.00
11329;BME280;5719;42.714;23.732;2022-12-19T06:21:55;96235.25;;;1.90;100.00
11329;BME280;5719;42.714;23.732;2022-12-19T06:24:23;96244.59;;;1.93;100.00
11329;BME280;5719;42.714;23.732;2022-12-19T06:26:50;96240.31;;;1.95;100.00
11329;BME280;5719;42.714;23.732;2022-12-19T06:29:16;96253.03;;;2.00;100.00
11329;BME280;5719;42.714;23.732;2022-12-19T06:31:43;96244.53;;;1.99;100.00
11329;BME280;5719;42.714;23.732;2022-12-19T06:34:12;96250.44;;;2.03;100.00
11329;BME280;5719;42.714;23.732;2022-12-19T06:36:38;96243.59;;;2.05;100.00
11329;BME280;5719;42.714;23.732;2022-12-19T06:39:05;96252.94;;;2.07;100.00
11329;BME280;5719;42.714;23.732;2022-12-19T06:41:32;96252.06;;;2.10;100.00
11329;BME280;5719;42.714;23.732;2022-12-19T06:44:17;96245.22;;;2.12;100.00
11329;BME280;5719;42.714;23.732;2022-12-19T06:46:44;96242.66;;;2.12;100.00
11329;BME280;5719;42.714;23.732;2022-12-19T06:49:12;96251.13;;;2.17;100.00
11329;BME280;5719;42.714;23.732;2022-12-19T06:51:39;96248.56;;;2.17;100.00
11329;BME280;5719;42.714;23.732;2022-12-19T06:54:06;96260.44;;;2.19;100.00
11329;BME280;5719;42.714;23.732;2022-12-19T06:56:34;96262.09;;;2.23;100.00
11329;BME280;5719;42.714;23.732;2022-12-19T06:59:01;96267.16;;;2.26;100.00
11329;BME280;5719;42.714;23.732;2022-12-19T07:01:36;96274.81;;;2.26;100.00
11329;BME280;5719;42.714;23.732;2022-12-19T07:04:09;96273.91;;;2.32;100.00
11329;BME280;5719;42.714;23.732;2022-12-19T07:06:39;96272.19;;;2.35;99.53
11329;BME280;5719;42.714;23.732;2022-12-19T07:09:06;96270.44;;;2.37;100.00
11329;BME280;5719;42.714;23.732;2022-12-19T07:11:33;96278.94;;;2.39;100.00
11329;BME280;5719;42.714;23.732;2022-12-19T07:14:00;96273.81;;;2.41;99.44
11329;BME280;5719;42.714;23.732;2022-12-19T07:16:27;96283.16;;;2.43;99.06
11329;BME280;5719;42.714;23.732;2022-12-19T07:18:54;96285.66;;;2.45;99.21
11329;BME280;5719;42.714;23.732;2022-12-19T07:21:21;96286.50;;;2.47;98.95
11329;BME280;5719;42.714;23.732;2022-12-19T07:23:49;96289.03;;;2.50;98.08
11329;BME280;5719;42.714;23.732;2022-12-19T07:26:16;96295.81;;;2.51;97.77
11329;BME280;5719;42.714;23.732;2022-12-19T07:28:43;96291.53;;;2.53;97.73
11329;BME280;5719;42.714;23.732;2022-12-19T07:31:10;96297.44;;;2.55;97.72
11329;BME280;5719;42.714;23.732;2022-12-19T07:33:37;96297.44;;;2.58;97.13
11329;BME280;5719;42.714;23.732;2022-12-19T07:36:04;96299.97;;;2.60;97.12
11329;BME280;5719;42.714;23.732;2022-12-19T07:38:31;96296.56;;;2.61;96.86
11329;BME280;5719;42.714;23.732;2022-12-19T07:41:02;96298.97;;;2.73;98.02
11329;BME280;5719;42.714;23.732;2022-12-19T07:43:29;96295.44;;;2.81;99.53
11329;BME280;5719;42.714;23.732;2022-12-19T07:45:56;96302.25;;;2.82;98.59
11329;BME280;5719;42.714;23.732;2022-12-19T07:48:23;96305.66;;;2.81;97.94
11329;BME280;5719;42.714;23.732;2022-12-19T07:50:50;96310.75;;;2.81;96.25
11329;BME280;5719;42.714;23.732;2022-12-19T07:53:17;96315.84;;;2.81;95.40
11329;BME280;5719;42.714;23.732;2022-12-19T07:55:44;96317.50;;;2.85;95.90
11329;BME280;5719;42.714;23.732;2022-12-19T07:58:12;96319.97;;;2.91;96.02
11329;BME280;5719;42.714;23.732;2022-12-19T08:00:39;96331.84;;;2.99;96.09
11329;BME280;5719;42.714;23.732;2022-12-19T08:03:06;96323.31;;;2.98;94.65
11329;BME280;5719;42.714;23.732;2022-12-19T08:05:33;96336.94;;;2.97;93.77
11329;BME280;5719;42.714;23.732;2022-12-19T08:08:00;96332.69;;;2.96;93.57
11329;BME280;5719;42.714;23.732;2022-12-19T08:10:27;96339.56;;;2.94;92.07
11329;BME280;5719;42.714;23.732;2022-12-19T08:12:53;96342.91;;;2.97;90.25
11329;BME280;5719;42.714;23.732;2022-12-19T08:15:22;96342.06;;;2.97;89.66
11329;BME280;5719;42.714;23.732;2022-12-19T08:17:49;96342.91;;;2.97;90.13
11329;BME280;5719;42.714;23.732;2022-12-19T08:20:16;96339.50;;;2.95;90.69
11329;BME280;5719;42.714;23.732;2022-12-19T08:22:43;96342.91;;;2.96;90.49
11329;BME280;5719;42.714;23.732;2022-12-19T08:25:10;96340.53;;;2.82;91.67
11329;BME280;5719;42.714;23.732;2022-12-19T08:27:37;96335.66;;;2.66;93.02
11329;BME280;5719;42.714;23.732;2022-12-19T08:30:06;96344.13;;;2.68;93.01
11329;BME280;5719;42.714;23.732;2022-12-19T08:32:35;96347.47;;;2.71;93.62
11329;BME280;5719;42.714;23.732;2022-12-19T08:35:02;96344.13;;;2.69;93.46
11329;BME280;5719;42.714;23.732;2022-12-19T08:37:29;96347.53;;;2.68;93.77
11329;BME280;5719;42.714;23.732;2022-12-19T08:39:56;96340.00;;;2.58;94.28
11329;BME280;5719;42.714;23.732;2022-12-19T08:42:23;96348.41;;;2.64;94.56
11329;BME280;5719;42.714;23.732;2022-12-19T08:44:50;96351.88;;;2.60;95.40
11329;BME280;5719;42.714;23.732;2022-12-19T08:47:17;96337.34;;;2.65;95.32
11329;BME280;5719;42.714;23.732;2022-12-19T08:49:45;96350.09;;;2.68;95.68
11329;BME280;5719;42.714;23.732;2022-12-19T08:52:12;96336.34;;;2.78;95.30
11329;BME280;5719;42.714;23.732;2022-12-19T08:54:39;96335.44;;;2.84;94.87
11329;BME280;5719;42.714;23.732;2022-12-19T08:57:06;96337.84;;;2.91;94.92
11329;BME280;5719;42.714;23.732;2022-12-19T08:59:33;96333.56;;;2.96;94.46
11329;BME280;5719;42.714;23.732;2022-12-19T09:02:00;96342.06;;;2.97;94.54
11329;BME280;5719;42.714;23.732;2022-12-19T09:04:26;96331.75;;;3.05;93.54
11329;BME280;5719;42.714;23.732;2022-12-19T09:06:55;96322.38;;;3.04;94.04
11329;BME280;5719;42.714;23.732;2022-12-19T09:09:22;96325.78;;;3.06;93.36
11329;BME280;5719;42.714;23.732;2022-12-19T09:11:49;96323.13;;;3.10;92.91
11329;BME280;5719;42.714;23.732;2022-12-19T09:14:16;96317.13;;;3.16;93.64
11329;BME280;5719;42.714;23.732;2022-12-19T09:16:43;96312.81;;;3.19;93.85
11329;BME280;5719;42.714;23.732;2022-12-19T09:19:09;96310.31;;;3.16;94.31
11329;BME280;5719;42.714;23.732;2022-12-19T09:21:40;96310.34;;;3.13;94.72
11329;BME280;5719;42.714;23.732;2022-12-19T09:24:08;96306.06;;;3.14;95.37
11329;BME280;5719;42.714;23.732;2022-12-19T09:26:36;96305.19;;;3.15;96.01
11329;BME280;5719;42.714;23.732;2022-12-19T09:29:04;96301.72;;;3.20;96.02
11329;BME280;5719;42.714;23.732;2022-12-19T09:31:31;96305.88;;;3.27;95.75
11329;BME280;5719;42.714;23.732;2022-12-19T09:33:59;96296.50;;;3.28;94.83
11329;BME280;5719;42.714;23.732;2022-12-19T09:36:26;96296.50;;;3.28;94.61
11329;BME280;5719;42.714;23.732;2022-12-19T09:38:53;96285.38;;;3.30;94.89
11329;BME280;5719;42.714;23.732;2022-12-19T09:41:39;96288.00;;;3.27;94.68
11329;BME280;5719;42.714;23.732;2022-12-19T09:44:17;96287.19;;;3.24;95.43
11329;BME280;5719;42.714;23.732;2022-12-19T09:46:50;96288.84;;;3.26;95.51
11329;BME280;5719;42.714;23.732;2022-12-19T09:49:21;96274.53;;;3.15;95.48
11329;BME280;5719;42.714;23.732;2022-12-19T09:51:55;96278.09;;;3.05;97.00
11329;BME280;5719;42.714;23.732;2022-12-19T09:54:26;96271.53;;;2.87;96.65
11329;BME280;5719;42.714;23.732;2022-12-19T09:57:03;96263.31;;;2.65;97.28
11329;BME280;5719;42.714;23.732;2022-12-19T09:59:34;96266.81;;;2.58;99.64
11329;BME280;5719;42.714;23.732;2022-12-19T10:02:19;96252.28;;;2.62;100.00
11329;BME280;5719;42.714;23.732;2022-12-19T10:04:51;96254.81;;;2.65;100.00
11329;BME280;5719;42.714;23.732;2022-12-19T10:07:20;96253.97;;;2.64;100.00
11329;BME280;5719;42.714;23.732;2022-12-19T10:09:47;96256.56;;;2.61;100.00
11329;BME280;5719;42.714;23.732;2022-12-19T10:12:32;96255.75;;;2.58;100.00
11329;BME280;5719;42.714;23.732;2022-12-19T10:15:05;96247.19;;;2.62;100.00
11329;BME280;5719;42.714;23.732;2022-12-19T10:18:00;96251.25;;;2.76;100.00
11329;BME280;5719;42.714;23.732;2022-12-19T10:20:33;96247.09;;;2.68;100.00
11329;BME280;5719;42.714;23.732;2022-12-19T10:23:14;96250.47;;;2.70;100.00
11329;BME280;5719;42.714;23.732;2022-12-19T10:25:50;96252.25;;;2.63;100.00
11329;BME280;5719;42.714;23.732;2022-12-19T10:28:42;96246.16;;;2.73;100.00
11329;BME280;5719;42.714;23.732;2022-12-19T10:31:16;96236.78;;;2.74;100.00
11329;BME280;5719;42.714;23.732;2022-12-19T10:33:47;96235.03;;;2.77;100.00
11329;BME280;5719;42.714;23.732;2022-12-19T10:36:17;96228.22;;;2.78;100.00
11329;BME280;5719;42.714;23.732;2022-12-19T10:38:49;96233.19;;;2.88;100.00
11329;BME280;5719;42.714;23.732;2022-12-19T10:41:21;96230.53;;;2.96;100.00
11329;BME280;5719;42.714;23.732;2022-12-19T10:44:00;96223.66;;;3.00;100.00
11329;BME280;5719;42.714;23.732;2022-12-19T10:46:37;96225.47;;;2.93;99.89
11329;BME280;5719;42.714;23.732;2022-12-19T10:49:13;96218.69;;;2.90;99.42
11329;BME280;5719;42.714;23.732;2022-12-19T10:51:41;96213.53;;;2.93;100.00
11329;BME280;5719;42.714;23.732;2022-12-19T10:54:09;96202.53;;;2.90;98.86
11329;BME280;5719;42.714;23.732;2022-12-19T10:56:35;96209.22;;;2.97;98.82
11329;BME280;5719;42.714;23.732;2022-12-19T10:59:15;96207.44;;;3.04;97.94
11329;BME280;5719;42.714;23.732;2022-12-19T11:01:42;96214.00;;;3.18;99.80
11329;BME280;5719;42.714;23.732;2022-12-19T11:04:16;96212.91;;;3.34;98.65
11329;BME280;5719;42.714;23.732;2022-12-19T11:06:47;96219.56;;;3.43;96.80
11329;BME280;5719;42.714;23.732;2022-12-19T11:09:21;96213.47;;;3.52;96.06
11329;BME280;5719;42.714;23.732;2022-12-19T11:11:50;96215.97;;;3.55;96.33
11329;BME280;5719;42.714;23.732;2022-12-19T11:14:25;96204.16;;;3.49;93.99
11329;BME280;5719;42.714;23.732;2022-12-19T11:16:52;96206.66;;;3.51;95.09
11329;BME280;5719;42.714;23.732;2022-12-19T11:19:20;96205.66;;;3.59;94.01
11329;BME280;5719;42.714;23.732;2022-12-19T11:21:47;96204.84;;;3.57;94.03
11329;BME280;5719;42.714;23.732;2022-12-19T11:24:21;96192.16;;;3.53;94.69
11329;BME280;5719;42.714;23.732;2022-12-19T11:26:50;96203.31;;;3.47;94.99
11329;BME280;5719;42.714;23.732;2022-12-19T11:29:21;96192.34;;;3.42;96.97
11329;BME280;5719;42.714;23.732;2022-12-19T11:31:56;96199.81;;;3.53;96.24
11329;BME280;5719;42.714;23.732;2022-12-19T11:34:25;96195.50;;;3.56;93.53
11329;BME280;5719;42.714;23.732;2022-12-19T11:36:56;96193.69;;;3.61;93.82
11329;BME280;5719;42.714;23.732;2022-12-19T11:39:32;96200.47;;;3.64;94.51
11329;BME280;5719;42.714;23.732;2022-12-19T11:42:06;96207.31;;;3.63;91.73
11329;BME280;5719;42.714;23.732;2022-12-19T11:44:40;96207.63;;;3.45;91.09
11329;BME280;5719;42.714;23.732;2022-12-19T11:47:21;96205.25;;;3.34;92.51
11329;BME280;5719;42.714;23.732;2022-12-19T11:49:57;96202.59;;;3.39;93.57
11329;BME280;5719;42.714;23.732;2022-12-19T11:52:36;96200.19;;;3.30;91.84
11329;BME280;5719;42.714;23.732;2022-12-19T11:55:15;96191.06;;;3.17;93.76
11329;BME280;5719;42.714;23.732;2022-12-19T11:57:44;96187.72;;;3.12;94.18
11329;BME280;5719;42.714;23.732;2022-12-19T12:00:12;96191.13;;;3.11;97.08
11329;BME280;5719;42.714;23.732;2022-12-19T12:03:05;96198.84;;;3.08;92.87
11329;BME280;5719;42.714;23.732;2022-12-19T12:05:41;96194.59;;;3.07;95.46
11329;BME280;5719;42.714;23.732;2022-12-19T12:11:23;96196.50;;;2.94;96.80
11329;BME280;5719;42.714;23.732;2022-12-19T12:14:16;96196.63;;;2.86;97.94
11329;BME280;5719;42.714;23.732;2022-12-19T12:17:06;96204.28;;;2.85;97.58
11329;BME280;5719;42.714;23.732;2022-12-19T12:19:50;96202.53;;;2.88;98.06
11329;BME280;5719;42.714;23.732;2022-12-19T12:22:45;96215.19;;;2.97;97.77
11329;BME280;5719;42.714;23.732;2022-12-19T12:25:28;96201.69;;;2.88;97.14
11329;BME280;5719;42.714;23.732;2022-12-19T12:28:15;96194.88;;;2.88;97.21
11329;BME280;5719;42.714;23.732;2022-12-19T12:30:56;96209.00;;;3.11;97.08
11329;BME280;5719;42.714;23.732;2022-12-19T12:33:32;96219.13;;;3.20;96.52
11329;BME280;5719;42.714;23.732;2022-12-19T12:36:11;96213.91;;;3.26;95.02
11329;BME280;5719;42.714;23.732;2022-12-19T12:38:53;96212.25;;;3.22;94.74
11329;BME280;5719;42.714;23.732;2022-12-19T12:41:34;96215.72;;;3.18;95.04
11329;BME280;5719;42.714;23.732;2022-12-19T12:44:37;96228.66;;;3.09;94.11
11329;BME280;5719;42.714;23.732;2022-12-19T12:47:11;96213.66;;;2.87;94.56
11329;BME280;5719;42.714;23.732;2022-12-19T12:49:42;96217.00;;;2.89;94.25
11329;BME280;5719;42.714;23.732;2022-12-19T12:52:14;96223.88;;;2.84;94.28
11329;BME280;5719;42.714;23.732;2022-12-19T12:54:44;96228.13;;;2.87;95.93
11329;BME280;5719;42.714;23.732;2022-12-19T12:57:22;96222.13;;;2.89;93.46
11329;BME280;5719;42.714;23.732;2022-12-19T13:03:03;96210.81;;;3.04;93.34
11329;BME280;5719;42.714;23.732;2022-12-19T13:05:36;96213.22;;;3.15;92.50
11329;BME280;5719;42.714;23.732;2022-12-19T13:10:56;96212.31;;;3.17;90.54
11329;BME280;5719;42.714;23.732;2022-12-19T13:13:48;96219.19;;;3.14;90.76
11329;BME280;5719;42.714;23.732;2022-12-19T13:16:47;96225.88;;;3.22;93.63
11329;BME280;5719;42.714;23.732;2022-12-19T13:19:17;96220.81;;;3.18;92.05
11329;BME280;5719;42.714;23.732;2022-12-19T13:22:18;96217.59;;;3.07;90.86
11329;BME280;5719;42.714;23.732;2022-12-19T13:24:48;96214.22;;;3.05;90.61
11329;BME280;5719;42.714;23.732;2022-12-19T13:27:34;96217.53;;;3.11;90.91
11329;BME280;5719;42.714;23.732;2022-12-19T13:30:12;96223.34;;;3.21;89.98
11329;BME280;5719;42.714;23.732;2022-12-19T13:33:07;96224.13;;;3.24;90.54
11329;BME280;5719;42.714;23.732;2022-12-19T13:35:34;96231.69;;;3.32;89.39
11329;BME280;5719;42.714;23.732;2022-12-19T13:38:14;96231.44;;;3.47;89.81
11329;BME280;5719;42.714;23.732;2022-12-19T13:40:55;96231.34;;;3.53;87.75